createdAt,value
2019-05-21T00:00:13.671Z,12.53
2019-05-21T00:02:43.170Z,12.51
2019-05-21T00:05:12.652Z,12.51
2019-05-21T00:07:42.085Z,12.54
2019-05-21T00:10:11.880Z,12.57
2019-05-21T00:12:41.291Z,12.62
2019-05-21T00:15:10.870Z,12.64
2019-05-21T00:17:41.543Z,12.65
2019-05-21T00:20:11.823Z,12.69
2019-05-21T00:22:41.278Z,12.64
2019-05-21T00:25:11.261Z,12.66
2019-05-21T00:27:40.807Z,12.66
2019-05-21T00:30:46.739Z,12.56
2019-05-21T00:33:52.965Z,12.54
2019-05-21T00:37:01.081Z,12.50
2019-05-21T00:40:07.510Z,12.50
2019-05-21T00:42:40.115Z,12.53
2019-05-21T00:45:12.235Z,12.47
2019-05-21T00:47:41.812Z,12.48
2019-05-21T00:50:12.582Z,12.41
2019-05-21T00:52:42.013Z,12.38
2019-05-21T00:55:11.565Z,12.39
2019-05-21T00:57:41.000Z,12.50
2019-05-21T01:00:12.097Z,12.43
2019-05-21T01:02:41.666Z,12.47
2019-05-21T01:05:11.450Z,12.42
2019-05-21T01:07:40.928Z,12.37
2019-05-21T01:10:10.883Z,12.35
2019-05-21T01:12:40.371Z,12.32
2019-05-21T01:15:10.160Z,12.29
2019-05-21T01:17:39.572Z,12.17
2019-05-21T01:20:09.359Z,12.08
2019-05-21T01:22:38.879Z,12.06
2019-05-21T01:25:08.576Z,12.03
2019-05-21T01:27:37.981Z,12.01
2019-05-21T01:30:07.963Z,12.02
2019-05-21T01:32:39.002Z,11.99
2019-05-21T01:35:17.264Z,12.02
2019-05-21T01:37:40.071Z,12.00
2019-05-21T01:40:09.861Z,12.01
2019-05-21T01:42:39.564Z,12.04
2019-05-21T01:45:09.359Z,12.01
2019-05-21T01:47:38.792Z,12.05
2019-05-21T01:50:08.236Z,12.15
2019-05-21T01:52:37.733Z,12.06
2019-05-21T01:55:07.511Z,12.08
2019-05-21T01:57:36.957Z,12.15
2019-05-21T02:00:07.141Z,12.23
2019-05-21T02:02:36.590Z,12.24
2019-05-21T02:05:07.413Z,12.21
2019-05-21T02:07:37.358Z,12.24
2019-05-21T02:10:07.897Z,12.23
2019-05-21T02:12:37.511Z,12.21
2019-05-21T02:15:07.648Z,12.30
2019-05-21T02:17:37.492Z,12.35
2019-05-21T02:20:07.344Z,12.35
2019-05-21T02:22:36.818Z,12.40
2019-05-21T02:25:07.857Z,12.45
2019-05-21T02:27:37.367Z,12.40
2019-05-21T02:30:09.711Z,12.40
2019-05-21T02:32:39.484Z,12.45
2019-05-21T02:35:09.802Z,12.36
2019-05-21T02:37:39.512Z,12.36
2019-05-21T02:40:09.870Z,12.32
2019-05-21T02:42:39.401Z,12.29
2019-05-21T02:45:09.642Z,12.27
2019-05-21T02:47:39.353Z,12.26
2019-05-21T02:50:09.401Z,12.23
2019-05-21T02:52:39.121Z,12.13
2019-05-21T02:55:09.575Z,12.17
2019-05-21T02:57:45.104Z,12.11
2019-05-21T03:00:37.907Z,12.17
2019-05-21T03:03:06.629Z,12.12
2019-05-21T03:05:36.235Z,12.14
2019-05-21T03:08:05.720Z,12.25
2019-05-21T03:10:35.417Z,12.22
2019-05-21T03:13:05.179Z,12.23
2019-05-21T03:15:34.844Z,12.18
2019-05-21T03:18:04.707Z,12.20
2019-05-21T03:20:34.265Z,12.29
2019-05-21T03:23:03.773Z,12.21
2019-05-21T03:25:33.189Z,12.21
2019-05-21T03:28:02.825Z,12.28
2019-05-21T03:30:32.338Z,12.20
2019-05-21T03:33:01.848Z,12.24
2019-05-21T03:35:48.998Z,12.23
2019-05-21T03:38:19.254Z,12.23
2019-05-21T03:40:48.851Z,12.24
2019-05-21T03:43:18.275Z,12.26
2019-05-21T03:45:47.733Z,12.19
2019-05-21T03:48:24.499Z,12.23
2019-05-21T03:50:54.450Z,12.23
2019-05-21T03:53:23.891Z,12.18
2019-05-21T03:55:53.398Z,12.21
2019-05-21T03:58:22.931Z,12.21
2019-05-21T04:00:52.458Z,12.23
2019-05-21T04:03:21.887Z,12.28
2019-05-21T04:05:51.429Z,12.26
2019-05-21T04:08:21.335Z,12.27
2019-05-21T04:10:50.776Z,12.21
2019-05-21T04:13:20.260Z,12.24
2019-05-21T04:15:51.591Z,12.29
2019-05-21T04:18:34.756Z,12.36
2019-05-21T04:21:04.397Z,12.32
2019-05-21T04:23:34.051Z,12.35
2019-05-21T04:26:03.754Z,12.08
2019-05-21T04:28:33.265Z,12.15
2019-05-21T04:31:02.770Z,12.18
2019-05-21T04:33:32.177Z,12.13
2019-05-21T04:36:01.624Z,12.12
2019-05-21T04:38:31.111Z,12.11
2019-05-21T04:41:00.620Z,12.07
2019-05-21T04:43:30.047Z,12.10
2019-05-21T04:45:59.505Z,12.05
2019-05-21T04:48:29.237Z,11.98
2019-05-21T04:50:58.692Z,11.93
2019-05-21T04:53:28.176Z,11.93
2019-05-21T04:55:57.626Z,11.98
2019-05-21T04:58:27.082Z,11.98
2019-05-21T05:00:56.592Z,12.04
2019-05-21T05:03:26.004Z,11.98
2019-05-21T05:05:57.143Z,11.98
2019-05-21T05:08:26.558Z,11.96
2019-05-21T05:10:55.988Z,12.00
2019-05-21T05:13:25.570Z,11.96
2019-05-21T05:15:55.009Z,11.97
2019-05-21T05:18:24.558Z,11.92
2019-05-21T05:20:54.002Z,11.91
2019-05-21T05:23:23.398Z,11.97
2019-05-21T05:25:53.887Z,12.06
2019-05-21T05:28:23.293Z,11.90
2019-05-21T05:30:52.910Z,11.98
2019-05-21T05:33:22.470Z,11.93
2019-05-21T05:35:51.925Z,12.00
2019-05-21T05:38:21.355Z,11.97
2019-05-21T05:40:50.874Z,12.02
2019-05-21T05:43:20.766Z,12.01
2019-05-21T05:45:50.395Z,11.98
2019-05-21T05:48:19.983Z,11.98
2019-05-21T05:50:53.850Z,12.02
2019-05-21T05:53:23.288Z,11.97
2019-05-21T05:55:52.932Z,11.99
2019-05-21T05:58:22.572Z,11.85
2019-05-21T06:00:52.011Z,11.91
2019-05-21T06:03:21.617Z,11.89
2019-05-21T06:05:51.137Z,11.81
2019-05-21T06:08:20.578Z,11.90
2019-05-21T06:10:50.011Z,11.87
2019-05-21T06:13:19.823Z,11.85
2019-05-21T06:15:49.276Z,11.88
2019-05-21T06:18:19.061Z,12.00
2019-05-21T06:20:48.665Z,11.99
2019-05-21T06:23:18.177Z,11.98
2019-05-21T06:25:47.612Z,11.96
2019-05-21T06:28:17.063Z,11.89
2019-05-21T06:30:46.505Z,11.93
2019-05-21T06:33:15.909Z,11.97
2019-05-21T06:35:46.189Z,11.92
2019-05-21T06:38:18.021Z,12.07
2019-05-21T06:40:46.792Z,11.96
2019-05-21T06:43:17.710Z,12.09
2019-05-21T06:45:47.290Z,12.20
2019-05-21T06:48:16.910Z,12.22
2019-05-21T06:50:46.337Z,12.13
2019-05-21T06:53:15.752Z,12.18
2019-05-21T06:55:45.304Z,12.24
2019-05-21T06:58:14.775Z,12.23
2019-05-21T07:00:44.386Z,12.25
2019-05-21T07:03:13.800Z,12.20
2019-05-21T07:05:57.632Z,12.33
2019-05-21T07:08:14.366Z,12.46
2019-05-21T07:10:43.799Z,12.38
2019-05-21T07:13:13.991Z,12.39
2019-05-21T07:15:43.893Z,12.57
2019-05-21T07:18:13.327Z,12.51
2019-05-21T07:20:42.847Z,12.56
2019-05-21T07:23:12.258Z,12.55
2019-05-21T07:25:44.932Z,12.63
2019-05-21T07:28:14.339Z,12.75
2019-05-21T07:30:43.822Z,12.62
2019-05-21T07:33:13.272Z,12.78
2019-05-21T07:35:44.341Z,12.60
2019-05-21T07:38:13.851Z,12.79
2019-05-21T07:40:43.258Z,12.75
2019-05-21T07:43:12.685Z,12.83
2019-05-21T07:45:42.131Z,12.87
2019-05-21T07:48:11.697Z,12.88
2019-05-21T07:50:41.490Z,12.90
2019-05-21T07:53:10.923Z,12.92
2019-05-21T07:55:40.419Z,13.08
2019-05-21T07:58:09.876Z,13.15
2019-05-21T08:00:39.981Z,13.17
2019-05-21T08:03:09.504Z,12.93
2019-05-21T08:05:38.916Z,13.25
2019-05-21T08:08:08.397Z,12.99
2019-05-21T08:10:37.826Z,13.14
2019-05-21T08:13:07.217Z,13.39
2019-05-21T08:15:36.668Z,13.40
2019-05-21T08:18:06.191Z,13.59
2019-05-21T08:20:35.738Z,13.47
2019-05-21T08:23:05.402Z,13.40
2019-05-21T08:25:34.917Z,13.33
2019-05-21T08:28:04.341Z,13.28
2019-05-21T08:30:33.790Z,13.29
2019-05-21T08:33:03.339Z,13.40
2019-05-21T08:35:32.797Z,13.24
2019-05-21T08:38:06.050Z,13.32
2019-05-21T08:40:33.431Z,13.42
2019-05-21T08:43:02.886Z,13.28
2019-05-21T08:45:32.350Z,13.46
2019-05-21T08:48:01.839Z,13.48
2019-05-21T08:50:31.355Z,13.43
2019-05-21T08:53:00.855Z,13.77
2019-05-21T08:55:30.263Z,13.59
2019-05-21T08:58:07.171Z,13.55
2019-05-21T09:00:31.113Z,13.49
2019-05-21T09:03:00.778Z,13.67
2019-05-21T09:05:30.220Z,13.50
2019-05-21T09:07:59.632Z,13.54
2019-05-21T09:10:29.109Z,13.42
2019-05-21T09:12:59.511Z,13.51
2019-05-21T09:15:28.944Z,13.82
2019-05-21T09:17:58.490Z,13.93
2019-05-21T09:20:27.993Z,14.13
2019-05-21T09:22:57.719Z,13.94
2019-05-21T09:25:27.150Z,13.81
2019-05-21T09:27:56.799Z,13.82
2019-05-21T09:30:26.489Z,14.03
2019-05-21T09:32:55.908Z,13.86
2019-05-21T09:35:25.516Z,14.11
2019-05-21T09:37:55.087Z,14.43
2019-05-21T09:40:26.141Z,14.37
2019-05-21T09:42:55.547Z,14.24
2019-05-21T09:45:25.288Z,14.49
2019-05-21T09:47:54.715Z,14.61
2019-05-21T09:50:24.406Z,14.72
2019-05-21T09:52:54.272Z,14.62
2019-05-21T09:55:23.729Z,14.74
2019-05-21T09:57:55.699Z,14.91
2019-05-21T10:00:33.886Z,14.51
2019-05-21T10:03:08.263Z,14.37
2019-05-21T10:05:37.703Z,14.40
2019-05-21T10:08:07.228Z,14.17
2019-05-21T10:10:36.796Z,14.10
2019-05-21T10:13:06.229Z,13.97
2019-05-21T10:15:36.556Z,13.89
2019-05-21T10:18:06.078Z,13.79
2019-05-21T10:20:35.713Z,13.67
2019-05-21T10:23:05.429Z,13.71
2019-05-21T10:25:34.950Z,13.94
2019-05-21T10:28:04.692Z,14.13
2019-05-21T10:30:34.195Z,14.60
2019-05-21T10:33:03.661Z,14.56
2019-05-21T10:35:33.152Z,15.14
2019-05-21T10:38:02.689Z,15.32
2019-05-21T10:40:32.184Z,15.34
2019-05-21T10:43:01.637Z,15.40
2019-05-21T10:45:31.204Z,15.59
2019-05-21T10:48:00.709Z,15.92
2019-05-21T10:50:30.307Z,16.16
2019-05-21T10:52:59.874Z,16.11
2019-05-21T10:55:29.276Z,16.37
2019-05-21T10:57:59.157Z,16.66
2019-05-21T11:00:30.046Z,16.10
2019-05-21T11:03:04.198Z,16.60
2019-05-21T11:05:35.257Z,16.12
2019-05-21T11:08:23.045Z,16.01
2019-05-21T11:10:36.959Z,15.77
2019-05-21T11:13:07.420Z,15.71
2019-05-21T11:15:36.844Z,15.53
2019-05-21T11:18:11.231Z,15.78
2019-05-21T11:20:37.676Z,16.09
2019-05-21T11:23:07.207Z,15.59
2019-05-21T11:25:36.716Z,15.75
2019-05-21T11:28:06.556Z,15.79
2019-05-21T11:30:36.043Z,16.26
2019-05-21T11:33:05.609Z,16.21
2019-05-21T11:35:36.315Z,16.61
2019-05-21T11:38:06.131Z,16.43
2019-05-21T11:40:35.809Z,16.45
2019-05-21T11:43:05.491Z,16.45
2019-05-21T11:45:35.130Z,16.64
2019-05-21T11:48:04.638Z,17.07
2019-05-21T11:50:34.206Z,16.89
2019-05-21T11:53:03.811Z,16.96
2019-05-21T11:55:33.205Z,16.64
2019-05-21T11:58:02.866Z,16.74
2019-05-21T12:00:32.323Z,17.28
2019-05-21T12:03:02.778Z,17.23
2019-05-21T12:05:32.261Z,17.23
2019-05-21T12:08:01.712Z,16.97
2019-05-21T12:10:31.305Z,16.76
2019-05-21T12:13:00.900Z,17.09
2019-05-21T12:15:30.509Z,16.96
2019-05-21T12:17:59.958Z,16.68
2019-05-21T12:20:36.830Z,16.54
2019-05-21T12:23:00.580Z,16.80
2019-05-21T12:25:30.890Z,16.90
2019-05-21T12:28:00.339Z,17.05
2019-05-21T12:30:29.996Z,16.73
2019-05-21T12:32:59.424Z,16.75
2019-05-21T12:35:29.020Z,16.82
2019-05-21T12:37:58.531Z,16.76
2019-05-21T12:40:27.933Z,16.93
2019-05-21T12:42:58.209Z,16.93
2019-05-21T12:45:27.656Z,16.29
2019-05-21T12:47:57.262Z,16.30
2019-05-21T12:50:26.748Z,16.42
2019-05-21T12:52:56.179Z,16.23
2019-05-21T12:55:25.641Z,16.22
2019-05-21T12:57:55.083Z,15.93
2019-05-21T13:00:29.641Z,16.27
2019-05-21T13:02:59.298Z,15.89
2019-05-21T13:05:28.760Z,15.98
2019-05-21T13:07:58.262Z,15.84
2019-05-21T13:10:27.670Z,15.76
2019-05-21T13:12:58.691Z,15.43
2019-05-21T13:15:28.234Z,15.08
2019-05-21T13:17:57.867Z,15.08
2019-05-21T13:20:27.551Z,15.35
2019-05-21T13:22:56.996Z,15.51
2019-05-21T13:25:28.019Z,15.58
2019-05-21T13:27:57.964Z,15.45
2019-05-21T13:30:28.768Z,15.57
2019-05-21T13:32:58.573Z,15.35
2019-05-21T13:35:28.123Z,15.01
2019-05-21T13:37:57.691Z,15.08
2019-05-21T13:40:28.233Z,14.92
2019-05-21T13:42:57.748Z,15.03
2019-05-21T13:45:27.326Z,14.84
2019-05-21T13:47:57.012Z,15.05
2019-05-21T13:50:26.601Z,15.02
2019-05-21T13:52:56.046Z,15.19
2019-05-21T13:55:25.458Z,15.18
2019-05-21T13:57:54.894Z,15.44
2019-05-21T14:00:41.782Z,15.29
2019-05-21T14:03:11.657Z,15.34
2019-05-21T14:05:41.131Z,15.40
2019-05-21T14:08:10.596Z,15.05
2019-05-21T14:10:40.466Z,14.74
2019-05-21T14:13:10.423Z,14.87
2019-05-21T14:15:39.904Z,14.92
2019-05-21T14:18:09.581Z,15.18
2019-05-21T14:20:39.231Z,15.27
2019-05-21T14:23:08.681Z,15.17
2019-05-21T14:25:38.158Z,15.47
2019-05-21T14:28:07.786Z,15.40
2019-05-21T14:30:37.523Z,15.53
2019-05-21T14:33:06.943Z,15.67
2019-05-21T14:35:36.350Z,15.87
2019-05-21T14:38:05.807Z,15.94
2019-05-21T14:40:36.559Z,15.86
2019-05-21T14:43:07.554Z,15.82
2019-05-21T14:45:37.022Z,15.87
2019-05-21T14:48:06.551Z,16.31
2019-05-21T14:50:35.991Z,16.10
2019-05-21T14:53:05.516Z,16.33
2019-05-21T14:55:34.944Z,16.18
2019-05-21T14:58:04.451Z,16.86
2019-05-21T15:00:37.650Z,16.85
2019-05-21T15:03:07.157Z,16.65
2019-05-21T15:05:36.684Z,16.41
2019-05-21T15:08:06.213Z,16.60
2019-05-21T15:10:48.177Z,16.97
2019-05-21T15:13:07.454Z,17.02
2019-05-21T15:15:36.902Z,17.11
2019-05-21T15:18:07.495Z,16.89
2019-05-21T15:20:45.061Z,16.61
2019-05-21T15:23:14.754Z,16.42
2019-05-21T15:25:44.506Z,16.00
2019-05-21T15:28:15.473Z,16.33
2019-05-21T15:30:44.920Z,16.13
2019-05-21T15:33:14.429Z,16.38
2019-05-21T15:35:43.931Z,15.96
2019-05-21T15:38:13.541Z,15.54
2019-05-21T15:40:43.128Z,15.23
2019-05-21T15:43:12.595Z,15.37
2019-05-21T15:45:42.093Z,15.82
2019-05-21T15:48:11.545Z,15.68
2019-05-21T15:50:41.061Z,15.77
2019-05-21T15:53:12.189Z,15.98
2019-05-21T15:55:41.957Z,15.77
2019-05-21T15:58:11.493Z,15.57
2019-05-21T16:00:41.120Z,15.05
2019-05-21T16:03:10.580Z,14.72
2019-05-21T16:05:40.040Z,14.65
2019-05-21T16:08:09.462Z,14.44
2019-05-21T16:10:38.910Z,14.34
2019-05-21T16:13:08.394Z,14.43
2019-05-21T16:15:39.432Z,14.34
2019-05-21T16:18:08.876Z,14.33
2019-05-21T16:20:42.595Z,14.41
2019-05-21T16:23:11.666Z,14.63
2019-05-21T16:25:41.158Z,14.48
2019-05-21T16:28:10.572Z,14.49
2019-05-21T16:30:40.031Z,14.30
2019-05-21T16:33:09.441Z,14.26
2019-05-21T16:35:38.884Z,14.42
2019-05-21T16:38:08.410Z,14.07
2019-05-21T16:40:39.551Z,14.04
2019-05-21T16:43:09.206Z,14.10
2019-05-21T16:45:38.656Z,14.15
2019-05-21T16:48:08.400Z,13.85
2019-05-21T16:50:37.982Z,14.17
2019-05-21T16:53:07.480Z,14.43
2019-05-21T16:55:37.379Z,14.15
2019-05-21T16:58:06.788Z,14.12
2019-05-21T17:00:36.243Z,14.13
2019-05-21T17:03:05.823Z,13.92
2019-05-21T17:05:35.563Z,13.81
2019-05-21T17:08:05.323Z,13.76
2019-05-21T17:10:34.869Z,13.76
2019-05-21T17:13:04.376Z,13.64
2019-05-21T17:15:33.818Z,13.34
2019-05-21T17:18:05.051Z,13.18
2019-05-21T17:20:34.666Z,13.22
2019-05-21T17:23:04.251Z,13.24
2019-05-21T17:25:33.777Z,13.17
2019-05-21T17:28:03.273Z,13.22
2019-05-21T17:30:32.875Z,13.20
2019-05-21T17:33:02.490Z,13.09
2019-05-21T17:35:31.917Z,12.97
2019-05-21T17:38:01.507Z,13.00
2019-05-21T17:40:31.195Z,12.90
2019-05-21T17:43:00.652Z,12.97
2019-05-21T17:45:30.112Z,12.93
2019-05-21T17:47:59.730Z,12.76
2019-05-21T17:50:29.197Z,12.86
2019-05-21T17:52:58.860Z,12.64
2019-05-21T17:55:28.691Z,12.56
2019-05-21T17:57:58.421Z,12.58
2019-05-21T18:00:29.647Z,12.46
2019-05-21T18:03:04.322Z,12.50
2019-05-21T18:05:33.851Z,12.52
2019-05-21T18:08:04.400Z,12.32
2019-05-21T18:10:34.701Z,12.46
2019-05-21T18:13:04.319Z,12.30
2019-05-21T18:15:33.806Z,12.31
2019-05-21T18:18:06.221Z,12.23
2019-05-21T18:20:36.507Z,12.19
2019-05-21T18:23:06.986Z,12.26
2019-05-21T18:25:36.449Z,12.31
2019-05-21T18:28:06.496Z,12.27
2019-05-21T18:30:36.372Z,12.25
2019-05-21T18:33:06.245Z,12.11
2019-05-21T18:35:35.716Z,12.00
2019-05-21T18:38:05.283Z,12.04
2019-05-21T18:40:34.752Z,12.05
2019-05-21T18:43:04.545Z,12.10
2019-05-21T18:45:34.006Z,12.02
2019-05-21T18:48:03.503Z,12.03
2019-05-21T18:50:36.786Z,11.94
2019-05-21T18:53:04.536Z,11.91
2019-05-21T18:55:35.573Z,11.93
2019-05-21T18:58:05.181Z,11.79
2019-05-21T19:00:35.016Z,11.88
2019-05-21T19:03:06.180Z,11.84
2019-05-21T19:05:35.675Z,11.80
2019-05-21T19:08:05.463Z,11.85
2019-05-21T19:10:35.089Z,11.79
2019-05-21T19:13:04.622Z,11.81
2019-05-21T19:15:34.293Z,11.85
2019-05-21T19:18:03.969Z,11.71
2019-05-21T19:20:33.619Z,11.70
2019-05-21T19:23:03.149Z,11.73
2019-05-21T19:25:32.636Z,11.69
2019-05-21T19:28:02.145Z,11.70
2019-05-21T19:30:31.851Z,11.72
2019-05-21T19:33:01.468Z,11.68
2019-05-21T19:35:33.260Z,11.68
2019-05-21T19:38:02.648Z,11.60
2019-05-21T19:40:32.317Z,11.63
2019-05-21T19:43:01.868Z,11.57
2019-05-21T19:45:31.589Z,11.48
2019-05-21T19:48:02.818Z,11.48
2019-05-21T19:50:32.768Z,11.49
2019-05-21T19:53:02.224Z,11.47
2019-05-21T19:55:33.928Z,11.42
2019-05-21T19:58:03.423Z,11.48
2019-05-21T20:00:33.208Z,11.37
2019-05-21T20:03:02.896Z,11.39
2019-05-21T20:05:32.480Z,11.37
2019-05-21T20:08:02.815Z,11.30
2019-05-21T20:10:34.165Z,11.36
2019-05-21T20:13:03.503Z,11.34
2019-05-21T20:15:32.915Z,11.34
2019-05-21T20:18:07.420Z,11.36
2019-05-21T20:20:33.981Z,11.33
2019-05-21T20:23:08.423Z,11.41
2019-05-21T20:25:36.909Z,11.36
2019-05-21T20:28:10.746Z,11.44
2019-05-21T20:30:39.357Z,11.41
2019-05-21T20:33:09.729Z,11.43
2019-05-21T20:35:41.837Z,11.44
2019-05-21T20:38:12.356Z,11.39
2019-05-21T20:40:42.174Z,11.28
2019-05-21T20:43:13.938Z,11.26
2019-05-21T20:45:43.470Z,11.25
2019-05-21T20:48:14.694Z,11.21
2019-05-21T20:50:45.696Z,11.19
2019-05-21T20:53:15.482Z,11.24
2019-05-21T20:55:45.165Z,11.26
2019-05-21T20:58:14.847Z,11.22
2019-05-21T21:00:49.537Z,11.25
2019-05-21T21:03:19.626Z,11.19
2019-05-21T21:05:49.042Z,11.21
2019-05-21T21:08:19.632Z,11.19
2019-05-21T21:10:49.087Z,11.23
2019-05-21T21:13:19.094Z,11.21
2019-05-21T21:15:48.972Z,11.19
2019-05-21T21:18:18.562Z,11.13
2019-05-21T21:20:48.044Z,11.23
2019-05-21T21:23:20.702Z,11.22
2019-05-21T21:25:50.434Z,11.21
2019-05-21T21:28:20.029Z,11.20
2019-05-21T21:30:50.064Z,11.23
2019-05-21T21:33:19.533Z,11.21
2019-05-21T21:35:48.997Z,11.15
2019-05-21T21:38:24.391Z,11.16
2019-05-21T21:40:54.549Z,11.20
2019-05-21T21:43:24.331Z,11.26
2019-05-21T21:45:53.787Z,11.26
2019-05-21T21:48:24.770Z,11.21
2019-05-21T21:50:54.388Z,11.15
2019-05-21T21:53:24.432Z,11.25
2019-05-21T21:55:53.900Z,11.27
2019-05-21T21:58:23.480Z,11.27
2019-05-21T22:01:28.417Z,11.25
2019-05-21T22:04:01.669Z,11.22
2019-05-21T22:06:35.588Z,11.12
2019-05-21T22:09:07.880Z,11.13
2019-05-21T22:11:38.349Z,11.10
2019-05-21T22:14:07.872Z,11.05
2019-05-21T22:16:37.928Z,11.13
2019-05-21T22:19:08.406Z,11.15
2019-05-21T22:21:38.159Z,11.10
2019-05-21T22:24:08.255Z,11.11
2019-05-21T22:26:39.142Z,11.21
2019-05-21T22:29:08.778Z,11.19
2019-05-21T22:31:38.569Z,11.20
2019-05-21T22:34:08.144Z,11.17
2019-05-21T22:36:37.594Z,11.10
2019-05-21T22:39:09.458Z,11.25
2019-05-21T22:41:38.967Z,11.24
2019-05-21T22:44:08.424Z,11.19
2019-05-21T22:46:37.886Z,11.21
2019-05-21T22:49:07.438Z,11.23
2019-05-21T22:51:36.883Z,11.25
2019-05-21T22:54:06.359Z,11.21
2019-05-21T22:56:36.004Z,11.14
2019-05-21T22:59:06.276Z,11.08
2019-05-21T23:01:37.233Z,11.13
2019-05-21T23:04:07.110Z,11.06
2019-05-21T23:06:36.553Z,11.05
2019-05-21T23:09:06.927Z,11.04
2019-05-21T23:11:36.882Z,11.12
2019-05-21T23:14:07.012Z,11.12
2019-05-21T23:16:36.886Z,11.05
2019-05-21T23:19:06.964Z,11.10
2019-05-21T23:21:36.659Z,11.18
2019-05-21T23:24:08.478Z,11.14
2019-05-21T23:26:38.063Z,10.99
2019-05-21T23:29:07.647Z,10.96
2019-05-21T23:31:37.433Z,10.98
2019-05-21T23:34:06.947Z,10.98
2019-05-21T23:36:38.120Z,10.95
2019-05-21T23:39:10.564Z,10.89
2019-05-21T23:41:41.663Z,10.88
2019-05-21T23:44:11.781Z,10.88
2019-05-21T23:46:41.185Z,10.86
2019-05-21T23:49:11.001Z,10.87
2019-05-21T23:51:40.761Z,10.84
2019-05-21T23:54:10.258Z,10.85
2019-05-21T23:56:39.723Z,10.87
2019-05-21T23:59:09.781Z,10.89
